Time,TemperatureF,DewpointF,PressureIn,WindDirection,WindDirectionDegrees,WindSpeedMPH,WindSpeedGustMPH,Humidity,HourlyPrecipIn,Conditions,Clouds,dailyrainin,SoftwareType,DateUTC
2013-05-10 00:00:00,54.1,52.4,30.10,West,277,0.0,0.0,94,0.00,,,0.08,Wunderground v.1.15,2013-05-10 04:00:00,
2013-05-10 00:05:00,53.9,52.2,30.10,West,277,0.0,0.0,94,0.00,,,0.00,Wunderground v.1.15,2013-05-10 04:05:00,
2013-05-10 00:10:00,53.8,52.1,30.11,West,277,0.0,0.0,94,0.00,,,0.00,Wunderground v.1.15,2013-05-10 04:10:00,
2013-05-10 00:15:00,53.6,51.9,30.11,West,277,0.0,0.0,94,0.00,,,0.00,Wunderground v.1.15,2013-05-10 04:15:00,
2013-05-10 00:20:00,53.4,51.7,30.11,West,277,0.0,0.0,94,0.00,,,0.00,Wunderground v.1.15,2013-05-10 04:20:00,
2013-05-10 00:25:00,53.3,51.6,30.11,West,277,0.0,0.0,94,0.00,,,0.00,Wunderground v.1.15,2013-05-10 04:25:00,
2013-05-10 00:35:00,53.0,51.3,30.11,West,277,0.0,0.0,94,0.00,,,0.00,Wunderground v.1.15,2013-05-10 04:35:00,
2013-05-10 00:40:00,52.8,51.1,30.11,West,277,0.0,0.0,94,0.00,,,0.00,Wunderground v.1.15,2013-05-10 04:40:00,
2013-05-10 00:45:00,52.7,51.0,30.11,West,277,0.0,0.0,94,0.00,,,0.00,Wunderground v.1.15,2013-05-10 04:45:00,
2013-05-10 00:55:00,52.6,50.9,30.11,West,277,0.0,0.0,94,0.00,,,0.00,Wunderground v.1.15,2013-05-10 04:55:00,
2013-05-10 01:00:00,52.5,50.8,30.12,West,277,0.0,1.0,94,0.00,,,0.00,Wunderground v.1.15,2013-05-10 05:00:00,
2013-05-10 01:10:00,52.3,50.9,30.12,West,277,0.0,0.0,95,0.00,,,0.00,Wunderground v.1.15,2013-05-10 05:10:00,
2013-05-10 01:15:00,52.2,50.5,30.12,West,277,0.0,0.0,94,0.00,,,0.00,Wunderground v.1.15,2013-05-10 05:15:00,
2013-05-10 01:20:00,52.0,50.3,30.12,West,277,0.0,0.0,94,0.00,,,0.00,Wunderground v.1.15,2013-05-10 05:20:00,
2013-05-10 01:25:00,52.1,50.4,30.12,West,277,0.0,0.0,94,0.00,,,0.00,Wunderground v.1.15,2013-05-10 05:25:00,
2013-05-10 01:30:00,52.0,50.6,30.12,West,277,0.0,0.0,95,0.00,,,0.00,Wunderground v.1.15,2013-05-10 05:30:00,
2013-05-10 01:40:00,51.7,50.0,30.12,West,277,0.0,0.0,94,0.00,,,0.00,Wunderground v.1.15,2013-05-10 05:40:00,
2013-05-10 01:45:00,51.6,49.9,30.12,West,277,0.0,0.0,94,0.00,,,0.00,Wunderground v.1.15,2013-05-10 05:45:00,
2013-05-10 01:55:00,51.3,49.9,30.11,West,277,0.0,0.0,95,0.00,,,0.00,Wunderground v.1.15,2013-05-10 05:55:00,
2013-05-10 02:00:00,51.2,49.8,30.11,West,277,0.0,0.0,95,0.00,,,0.00,Wunderground v.1.15,2013-05-10 06:00:00,
2013-05-10 02:05:00,51.1,49.7,30.11,West,277,0.0,0.0,95,0.00,,,0.00,Wunderground v.1.15,2013-05-10 06:05:00,
2013-05-10 02:10:00,51.1,49.7,30.11,West,277,0.0,0.0,95,0.00,,,0.00,Wunderground v.1.15,2013-05-10 06:10:00,
2013-05-10 02:15:00,51.0,49.6,30.11,West,277,0.0,0.0,95,0.00,,,0.00,Wunderground v.1.15,2013-05-10 06:15:00,
2013-05-10 02:25:00,51.0,49.6,30.11,West,277,0.0,0.0,95,0.00,,,0.00,Wunderground v.1.15,2013-05-10 06:25:00,
2013-05-10 02:30:00,51.0,49.6,30.10,West,277,0.0,0.0,95,0.00,,,0.00,Wunderground v.1.15,2013-05-10 06:30:00,
2013-05-10 02:40:00,50.9,49.5,30.10,West,277,0.0,0.0,95,0.00,,,0.00,Wunderground v.1.15,2013-05-10 06:40:00,
2013-05-10 02:50:00,50.7,49.3,30.10,West,277,0.0,0.0,95,0.00,,,0.00,Wunderground v.1.15,2013-05-10 06:50:00,
2013-05-10 02:55:00,50.6,49.2,30.10,West,277,0.0,0.0,95,0.00,,,0.00,Wunderground v.1.15,2013-05-10 06:55:00,
2013-05-10 03:00:00,50.6,49.2,30.09,West,277,0.0,0.0,95,0.00,,,0.00,Wunderground v.1.15,2013-05-10 07:00:00,
2013-05-10 03:10:00,50.5,49.1,30.09,West,277,0.0,0.0,95,0.00,,,0.00,Wunderground v.1.15,2013-05-10 07:10:00,
2013-05-10 03:15:00,50.5,49.1,30.09,West,277,0.0,0.0,95,0.00,,,0.00,Wunderground v.1.15,2013-05-10 07:15:00,
2013-05-10 03:25:00,50.6,49.2,30.09,West,277,0.0,0.0,95,0.00,,,0.00,Wunderground v.1.15,2013-05-10 07:25:00,
2013-05-10 03:30:00,50.7,49.3,30.09,West,277,0.0,0.0,95,0.00,,,0.00,Wunderground v.1.15,2013-05-10 07:30:00,
2013-05-10 03:40:00,51.0,49.6,30.09,West,277,0.0,0.0,95,0.00,,,0.00,Wunderground v.1.15,2013-05-10 07:40:00,
2013-05-10 03:45:00,51.1,49.7,30.09,West,277,0.0,0.0,95,0.00,,,0.00,Wunderground v.1.15,2013-05-10 07:45:00,
2013-05-10 03:50:00,51.2,49.8,30.09,West,277,0.0,0.0,95,0.00,,,0.00,Wunderground v.1.15,2013-05-10 07:50:00,
2013-05-10 03:55:00,51.2,49.8,30.09,West,277,0.0,0.0,95,0.00,,,0.00,Wunderground v.1.15,2013-05-10 07:55:00,
2013-05-10 04:00:00,51.2,49.8,30.09,West,277,0.0,0.0,95,0.00,,,0.00,Wunderground v.1.15,2013-05-10 08:00:00,
2013-05-10 04:10:00,51.3,49.9,30.08,West,277,0.0,0.0,95,0.00,,,0.00,Wunderground v.1.15,2013-05-10 08:10:00,
2013-05-10 04:15:00,51.3,49.9,30.08,West,277,0.0,0.0,95,0.00,,,0.00,Wunderground v.1.15,2013-05-10 08:15:00,
2013-05-10 04:25:00,51.4,50.0,30.09,West,277,0.0,0.0,95,0.00,,,0.00,Wunderground v.1.15,2013-05-10 08:25:00,
2013-05-10 04:30:00,51.4,50.0,30.09,West,277,0.0,0.0,95,0.00,,,0.00,Wunderground v.1.15,2013-05-10 08:30:00,
2013-05-10 04:35:00,51.4,50.0,30.09,West,277,0.0,0.0,95,0.00,,,0.00,Wunderground v.1.15,2013-05-10 08:35:00,
2013-05-10 04:40:00,51.4,50.0,30.09,West,277,0.0,0.0,95,0.00,,,0.00,Wunderground v.1.15,2013-05-10 08:40:00,
2013-05-10 04:45:00,51.3,49.9,30.09,West,277,0.0,0.0,95,0.00,,,0.00,Wunderground v.1.15,2013-05-10 08:45:00,
2013-05-10 04:55:00,51.2,49.8,30.09,West,277,0.0,0.0,95,0.00,,,0.00,Wunderground v.1.15,2013-05-10 08:55:00,
2013-05-10 05:00:00,51.1,49.7,30.09,West,277,0.0,0.0,95,0.00,,,0.00,Wunderground v.1.15,2013-05-10 09:00:00,
2013-05-10 05:10:00,51.1,49.7,30.09,West,277,0.0,0.0,95,0.00,,,0.00,Wunderground v.1.15,2013-05-10 09:10:00,
2013-05-10 05:15:00,51.1,49.7,30.09,West,277,0.0,0.0,95,0.00,,,0.00,Wunderground v.1.15,2013-05-10 09:15:00,
2013-05-10 05:20:00,51.1,49.7,30.09,West,277,0.0,0.0,95,0.00,,,0.00,Wunderground v.1.15,2013-05-10 09:20:00,
2013-05-10 05:25:00,51.2,49.8,30.09,West,277,0.0,0.0,95,0.00,,,0.00,Wunderground v.1.15,2013-05-10 09:25:00,
2013-05-10 05:35:00,51.1,49.7,30.08,West,277,0.0,0.0,95,0.00,,,0.00,Wunderground v.1.15,2013-05-10 09:35:00,
2013-05-10 05:40:00,51.0,49.6,30.08,West,277,0.0,0.0,95,0.00,,,0.00,Wunderground v.1.15,2013-05-10 09:40:00,
2013-05-10 05:45:00,51.0,49.6,30.08,West,277,0.0,0.0,95,0.00,,,0.00,Wunderground v.1.15,2013-05-10 09:45:00,
2013-05-10 05:55:00,50.9,49.5,30.08,West,277,0.0,0.0,95,0.00,,,0.00,Wunderground v.1.15,2013-05-10 09:55:00,
2013-05-10 06:00:00,50.8,49.4,30.08,West,277,0.0,0.0,95,0.00,,,0.00,Wunderground v.1.15,2013-05-10 10:00:00,
2013-05-10 06:10:00,50.9,49.8,30.08,West,277,0.0,0.0,96,0.00,,,0.00,Wunderground v.1.15,2013-05-10 10:10:00,
2013-05-10 06:15:00,50.9,49.5,30.08,West,277,0.0,0.0,95,0.00,,,0.00,Wunderground v.1.15,2013-05-10 10:15:00,
2013-05-10 06:25:00,50.9,49.8,30.08,West,277,0.0,0.0,96,0.00,,,0.00,Wunderground v.1.15,2013-05-10 10:25:00,
2013-05-10 06:30:00,50.8,49.7,30.08,West,277,0.0,0.0,96,0.00,,,0.00,Wunderground v.1.15,2013-05-10 10:30:00,
2013-05-10 06:40:00,51.0,49.9,30.08,West,277,0.0,0.0,96,0.00,,,0.00,Wunderground v.1.15,2013-05-10 10:40:00,
2013-05-10 06:45:00,50.8,49.4,30.08,West,277,0.0,0.0,95,0.00,,,0.00,Wunderground v.1.15,2013-05-10 10:45:00,
2013-05-10 06:55:00,50.7,49.3,30.09,West,277,0.0,0.0,95,0.00,,,0.00,Wunderground v.1.15,2013-05-10 10:55:00,
2013-05-10 07:05:00,50.8,49.4,30.09,West,277,0.0,0.0,95,0.00,,,0.00,Wunderground v.1.15,2013-05-10 11:05:00,
2013-05-10 07:10:00,50.8,49.4,30.09,West,277,0.0,0.0,95,0.00,,,0.00,Wunderground v.1.15,2013-05-10 11:10:00,
2013-05-10 07:15:00,50.8,49.7,30.09,West,277,0.0,0.0,96,0.00,,,0.00,Wunderground v.1.15,2013-05-10 11:15:00,
2013-05-10 07:25:00,51.0,49.9,30.09,West,277,0.0,0.0,96,0.00,,,0.00,Wunderground v.1.15,2013-05-10 11:25:00,
2013-05-10 07:30:00,51.1,50.0,30.08,West,277,0.0,0.0,96,0.00,,,0.00,Wunderground v.1.15,2013-05-10 11:30:00,
2013-05-10 07:40:00,51.2,50.1,30.09,West,277,0.0,0.0,96,0.00,,,0.00,Wunderground v.1.15,2013-05-10 11:40:00,
2013-05-10 07:45:00,51.3,50.2,30.09,West,277,0.0,0.0,96,0.00,,,0.00,Wunderground v.1.15,2013-05-10 11:45:00,
2013-05-10 07:50:00,51.5,50.4,30.09,West,277,0.0,0.0,96,0.00,,,0.00,Wunderground v.1.15,2013-05-10 11:50:00,
2013-05-10 07:55:00,51.7,50.6,30.09,West,277,0.0,0.0,96,0.00,,,0.00,Wunderground v.1.15,2013-05-10 11:55:00,
2013-05-10 08:05:00,52.1,51.0,30.08,West,277,0.0,1.0,96,0.00,,,0.00,Wunderground v.1.15,2013-05-10 12:05:00,
2013-05-10 08:10:00,52.3,51.2,30.08,West,277,0.0,0.0,96,0.00,,,0.00,Wunderground v.1.15,2013-05-10 12:10:00,
2013-05-10 08:20:00,52.6,51.5,30.08,West,277,0.0,0.0,96,0.00,,,0.00,Wunderground v.1.15,2013-05-10 12:20:00,
2013-05-10 08:25:00,52.7,51.6,30.08,West,277,0.0,1.0,96,0.00,,,0.00,Wunderground v.1.15,2013-05-10 12:25:00,
2013-05-10 08:30:00,52.9,51.8,30.08,West,277,0.0,1.0,96,0.00,,,0.00,Wunderground v.1.15,2013-05-10 12:30:00,
2013-05-10 08:40:00,53.9,52.8,30.07,East,94,1.0,2.0,96,0.00,,,0.00,Wunderground v.1.15,2013-05-10 12:40:00,
2013-05-10 08:45:00,54.2,53.1,30.07,NE,42,1.0,2.0,96,0.00,,,0.00,Wunderground v.1.15,2013-05-10 12:45:00,
2013-05-10 08:50:00,54.7,53.6,30.07,NE,45,1.0,2.0,96,0.00,,,0.00,Wunderground v.1.15,2013-05-10 12:50:00,
2013-05-10 09:00:00,55.2,54.1,30.08,North,5,1.0,1.0,96,0.00,,,0.00,Wunderground v.1.15,2013-05-10 13:00:00,
2013-05-10 09:10:00,56.2,55.1,30.08,NE,55,0.0,0.0,96,0.00,,,0.00,Wunderground v.1.15,2013-05-10 13:10:00,
2013-05-10 09:15:00,56.5,55.4,30.08,NE,56,0.0,0.0,96,0.00,,,0.00,Wunderground v.1.15,2013-05-10 13:15:00,
2013-05-10 09:20:00,56.6,55.5,30.08,NE,56,0.0,0.0,96,0.00,,,0.00,Wunderground v.1.15,2013-05-10 13:20:00,
2013-05-10 09:25:00,56.9,55.8,30.08,NE,56,0.0,0.0,96,0.00,,,0.00,Wunderground v.1.15,2013-05-10 13:25:00,
2013-05-10 09:30:00,57.1,56.0,30.08,NE,56,0.0,0.0,96,0.00,,,0.00,Wunderground v.1.15,2013-05-10 13:30:00,
2013-05-10 09:40:00,57.6,56.2,30.07,ENE,59,0.0,1.0,95,0.00,,,0.00,Wunderground v.1.15,2013-05-10 13:40:00,
2013-05-10 09:45:00,58.0,56.6,30.07,ENE,59,0.0,1.0,95,0.00,,,0.00,Wunderground v.1.15,2013-05-10 13:45:00,
2013-05-10 09:55:00,59.1,57.7,30.07,ENE,59,0.0,0.0,95,0.00,,,0.00,Wunderground v.1.15,2013-05-10 13:55:00,
2013-05-10 10:00:00,59.8,58.1,30.07,ENE,60,0.0,0.0,94,0.00,,,0.00,Wunderground v.1.15,2013-05-10 14:00:00,
2013-05-10 10:25:00,62.5,59.5,30.06,ESE,114,0.0,1.0,90,0.00,,,0.00,Wunderground v.1.15,2013-05-10 14:25:00,
2013-05-10 10:35:00,63.5,59.6,30.06,ESE,114,0.0,0.0,87,0.00,,,0.00,Wunderground v.1.15,2013-05-10 14:35:00,
2013-05-10 10:40:00,64.2,60.2,30.06,ESE,114,0.0,0.0,87,0.00,,,0.00,Wunderground v.1.15,2013-05-10 14:40:00,
2013-05-10 10:45:00,65.0,60.4,30.06,ESE,114,0.0,0.0,85,0.00,,,0.00,Wunderground v.1.15,2013-05-10 14:45:00,
2013-05-10 10:55:00,66.1,60.4,30.05,ESE,114,0.0,0.0,82,0.00,,,0.00,Wunderground v.1.15,2013-05-10 14:55:00,
2013-05-10 11:00:00,66.5,60.1,30.05,ESE,114,1.0,1.0,80,0.00,,,0.00,Wunderground v.1.15,2013-05-10 15:00:00,
2013-05-10 11:10:00,67.9,61.1,30.05,ENE,59,1.0,1.0,79,0.00,,,0.00,Wunderground v.1.15,2013-05-10 15:10:00,
2013-05-10 11:15:00,68.7,60.5,30.05,SE,127,1.0,1.0,75,0.00,,,0.00,Wunderground v.1.15,2013-05-10 15:15:00,
2013-05-10 11:25:00,70.1,61.4,30.05,SE,127,0.0,1.0,74,0.00,,,0.00,Wunderground v.1.15,2013-05-10 15:25:00,
2013-05-10 11:30:00,70.6,61.1,30.05,SE,127,1.0,1.0,72,0.00,,,0.00,Wunderground v.1.15,2013-05-10 15:30:00,
2013-05-10 11:35:00,70.8,60.9,30.05,SE,127,1.0,1.0,71,0.00,,,0.00,Wunderground v.1.15,2013-05-10 15:35:00,
2013-05-10 11:40:00,71.4,60.3,30.05,SE,129,1.0,1.0,68,0.00,,,0.00,Wunderground v.1.15,2013-05-10 15:40:00,
2013-05-10 11:50:00,72.1,61.4,30.05,South,189,0.0,1.0,69,0.00,,,0.00,Wunderground v.1.15,2013-05-10 15:50:00,
2013-05-10 11:55:00,72.6,61.4,30.05,NW,309,1.0,1.0,68,0.00,,,0.00,Wunderground v.1.15,2013-05-10 15:55:00,
2013-05-10 12:00:00,72.9,62.1,30.05,WNW,293,1.0,5.0,69,0.00,,,0.00,Wunderground v.1.15,2013-05-10 16:00:00,
2013-05-10 12:10:00,72.6,62.7,30.04,NW,310,3.0,5.0,71,0.00,,,0.00,Wunderground v.1.15,2013-05-10 16:10:00,
2013-05-10 12:15:00,72.8,61.2,30.04,WNW,302,3.0,5.0,67,0.00,,,0.00,Wunderground v.1.15,2013-05-10 16:15:00,
2013-05-10 12:20:00,73.2,62.8,30.04,NW,304,3.0,4.0,70,0.00,,,0.00,Wunderground v.1.15,2013-05-10 16:20:00,
2013-05-10 12:25:00,73.5,62.3,30.04,West,276,2.0,4.0,68,0.00,,,0.00,Wunderground v.1.15,2013-05-10 16:25:00,
2013-05-10 12:30:00,73.8,62.2,30.04,WNW,302,2.0,4.0,67,0.00,,,0.00,Wunderground v.1.15,2013-05-10 16:30:00,
2013-05-10 12:40:00,74.5,62.8,30.03,East,86,1.0,1.0,67,0.00,,,0.00,Wunderground v.1.15,2013-05-10 16:40:00,
2013-05-10 12:45:00,74.8,61.4,30.03,WNW,287,2.0,3.0,63,0.00,,,0.00,Wunderground v.1.15,2013-05-10 16:45:00,
2013-05-10 12:55:00,75.0,62.0,30.03,NE,34,2.0,4.0,64,0.00,,,0.00,Wunderground v.1.15,2013-05-10 16:55:00,
2013-05-10 13:00:00,75.0,60.6,30.03,North,5,3.0,3.0,61,0.00,,,0.00,Wunderground v.1.15,2013-05-10 17:00:00,
2013-05-10 13:05:00,75.5,61.6,30.03,West,276,3.0,3.0,62,0.00,,,0.00,Wunderground v.1.15,2013-05-10 17:05:00,
2013-05-10 13:10:00,75.7,60.8,30.02,NNW,327,2.0,3.0,60,0.00,,,0.00,Wunderground v.1.15,2013-05-10 17:10:00,
2013-05-10 13:20:00,74.9,59.6,30.02,West,281,5.0,5.0,59,0.00,,,0.00,Wunderground v.1.15,2013-05-10 17:20:00,
2013-05-10 13:25:00,74.9,59.1,30.02,NW,317,5.0,10.0,58,0.00,,,0.00,Wunderground v.1.15,2013-05-10 17:25:00,
2013-05-10 13:30:00,75.1,59.3,30.01,West,279,4.0,4.0,58,0.00,,,0.00,Wunderground v.1.15,2013-05-10 17:30:00,
2013-05-10 13:40:00,75.8,60.4,30.01,North,5,3.0,5.0,59,0.00,,,0.00,Wunderground v.1.15,2013-05-10 17:40:00,
2013-05-10 13:45:00,76.1,62.1,30.00,North,5,3.0,5.0,62,0.00,,,0.00,Wunderground v.1.15,2013-05-10 17:45:00,
2013-05-10 13:50:00,76.0,58.7,30.00,NW,313,3.0,5.0,55,0.00,,,0.00,Wunderground v.1.15,2013-05-10 17:50:00,
2013-05-10 13:55:00,75.7,60.8,30.00,North,360,3.0,5.0,60,0.00,,,0.00,Wunderground v.1.15,2013-05-10 17:55:00,
2013-05-10 14:05:00,75.8,60.0,30.00,NW,320,3.0,3.0,58,0.00,,,0.00,Wunderground v.1.15,2013-05-10 18:05:00,
2013-05-10 14:10:00,75.7,58.9,30.00,NNW,330,3.0,6.0,56,0.00,,,0.00,Wunderground v.1.15,2013-05-10 18:10:00,
2013-05-10 14:15:00,75.8,57.4,30.00,NNW,335,3.0,6.0,53,0.00,,,0.00,Wunderground v.1.15,2013-05-10 18:15:00,
2013-05-10 14:25:00,76.3,59.4,29.99,WSW,244,2.0,5.0,56,0.00,,,0.00,Wunderground v.1.15,2013-05-10 18:25:00,
2013-05-10 14:30:00,76.4,59.5,29.99,NW,326,2.0,3.0,56,0.00,,,0.00,Wunderground v.1.15,2013-05-10 18:30:00,
2013-05-10 14:40:00,76.4,58.0,29.98,NE,51,3.0,3.0,53,0.00,,,0.00,Wunderground v.1.15,2013-05-10 18:40:00,
2013-05-10 14:45:00,76.3,58.4,29.98,NW,306,4.0,6.0,54,0.00,,,0.00,Wunderground v.1.15,2013-05-10 18:45:00,
2013-05-10 14:55:00,76.3,58.9,29.98,NW,305,2.0,4.0,55,0.00,,,0.00,Wunderground v.1.15,2013-05-10 18:55:00,
2013-05-10 15:00:00,76.3,60.9,29.98,North,355,2.0,2.0,59,0.00,,,0.00,Wunderground v.1.15,2013-05-10 19:00:00,
2013-05-10 15:05:00,76.1,58.8,29.98,NNW,340,3.0,5.0,55,0.00,,,0.00,Wunderground v.1.15,2013-05-10 19:05:00,
2013-05-10 15:10:00,75.9,58.1,29.98,West,275,4.0,4.0,54,0.00,,,0.00,Wunderground v.1.15,2013-05-10 19:10:00,
2013-05-10 15:15:00,75.9,59.6,29.98,NNE,30,4.0,4.0,57,0.00,,,0.00,Wunderground v.1.15,2013-05-10 19:15:00,
2013-05-10 15:25:00,75.1,59.8,29.97,NNW,341,3.0,3.0,59,0.00,,,0.00,Wunderground v.1.15,2013-05-10 19:25:00,
2013-05-10 15:30:00,74.7,58.0,29.97,WNW,300,3.0,3.0,56,0.00,,,0.00,Wunderground v.1.15,2013-05-10 19:30:00,
2013-05-10 15:40:00,74.3,57.6,29.96,SSW,192,1.0,1.0,56,0.00,,,0.00,Wunderground v.1.15,2013-05-10 19:40:00,
2013-05-10 15:45:00,74.1,59.8,29.97,WNW,296,1.0,1.0,61,0.00,,,0.00,Wunderground v.1.15,2013-05-10 19:45:00,
2013-05-10 15:55:00,73.6,59.8,29.96,NW,304,2.0,3.0,62,0.00,,,0.00,Wunderground v.1.15,2013-05-10 19:55:00,
2013-05-10 16:00:00,73.5,59.2,29.96,NW,313,2.0,2.0,61,0.00,,,0.00,Wunderground v.1.15,2013-05-10 20:00:00,
2013-05-10 16:05:00,73.5,60.1,29.96,NNW,334,2.0,2.0,63,0.00,,,0.00,Wunderground v.1.15,2013-05-10 20:05:00,
2013-05-10 16:10:00,73.4,60.5,29.96,NW,313,1.0,1.0,64,0.00,,,0.00,Wunderground v.1.15,2013-05-10 20:10:00,
2013-05-10 16:15:00,73.3,59.9,29.96,NW,306,1.0,1.0,63,0.00,,,0.00,Wunderground v.1.15,2013-05-10 20:15:00,
2013-05-10 16:25:00,73.0,60.1,29.96,NNW,332,3.0,3.0,64,0.00,,,0.00,Wunderground v.1.15,2013-05-10 20:25:00,
2013-05-10 16:30:00,72.8,60.8,29.96,West,273,3.0,3.0,66,0.00,,,0.00,Wunderground v.1.15,2013-05-10 20:30:00,
2013-05-10 16:40:00,72.0,60.9,29.97,WNW,303,1.0,9.0,68,0.00,,,0.00,Wunderground v.1.15,2013-05-10 20:40:00,
2013-05-10 16:45:00,71.8,61.5,29.97,NNW,331,2.0,9.0,70,0.00,,,0.00,Wunderground v.1.15,2013-05-10 20:45:00,
2013-05-10 16:50:00,71.2,60.5,29.97,SW,217,2.0,2.0,69,0.00,,,0.00,Wunderground v.1.15,2013-05-10 20:50:00,
2013-05-10 16:55:00,70.4,60.1,29.97,NW,307,1.0,2.0,70,0.00,,,0.00,Wunderground v.1.15,2013-05-10 20:55:00,
2013-05-10 17:00:00,69.7,62.2,29.97,NW,307,0.0,0.0,77,0.00,,,0.01,Wunderground v.1.15,2013-05-10 21:00:00,
2013-05-10 17:10:00,68.0,62.6,29.97,NW,307,0.0,0.0,83,0.00,,,0.01,Wunderground v.1.15,2013-05-10 21:10:00,
2013-05-10 17:15:00,67.6,62.6,29.98,NW,307,0.0,0.0,84,0.00,,,0.01,Wunderground v.1.15,2013-05-10 21:15:00,
2013-05-10 17:25:00,67.4,62.7,29.98,SSE,149,1.0,1.0,85,0.00,,,0.01,Wunderground v.1.15,2013-05-10 21:25:00,
2013-05-10 17:30:00,67.2,62.5,29.99,SSE,161,0.0,2.0,85,0.00,,,0.01,Wunderground v.1.15,2013-05-10 21:30:00,
2013-05-10 17:40:00,67.0,62.7,29.99,SSE,148,0.0,0.0,86,0.00,,,0.01,Wunderground v.1.15,2013-05-10 21:40:00,
2013-05-10 17:45:00,66.8,62.1,29.99,SSE,148,0.0,2.0,85,0.00,,,0.01,Wunderground v.1.15,2013-05-10 21:45:00,
2013-05-10 17:55:00,66.7,62.4,29.98,SSE,148,0.0,0.0,86,0.00,,,0.01,Wunderground v.1.15,2013-05-10 21:55:00,
2013-05-10 18:00:00,66.5,62.2,29.98,SE,134,0.0,0.0,86,0.00,,,0.01,Wunderground v.1.15,2013-05-10 22:00:00,
2013-05-10 18:05:00,66.5,61.8,29.99,SE,134,1.0,1.0,85,0.00,,,0.01,Wunderground v.1.15,2013-05-10 22:05:00,
2013-05-10 18:10:00,66.5,62.5,29.99,SE,134,0.0,0.0,87,0.00,,,0.01,Wunderground v.1.15,2013-05-10 22:10:00,
2013-05-10 18:15:00,66.4,62.7,29.98,SE,134,0.0,0.0,88,0.00,,,0.01,Wunderground v.1.15,2013-05-10 22:15:00,
2013-05-10 18:20:00,66.2,62.5,29.98,SE,134,0.0,0.0,88,0.00,,,0.01,Wunderground v.1.15,2013-05-10 22:20:00,
2013-05-10 18:25:00,66.1,62.4,29.98,SE,134,0.0,0.0,88,0.00,,,0.01,Wunderground v.1.15,2013-05-10 22:25:00,
2013-05-10 18:30:00,66.0,62.7,29.98,SE,134,0.0,0.0,89,0.00,,,0.01,Wunderground v.1.15,2013-05-10 22:30:00,
2013-05-10 18:40:00,65.7,62.4,29.97,SE,134,0.0,0.0,89,0.00,,,0.01,Wunderground v.1.15,2013-05-10 22:40:00,
2013-05-10 18:45:00,65.4,62.1,29.97,SE,134,0.0,0.0,89,0.00,,,0.01,Wunderground v.1.15,2013-05-10 22:45:00,
2013-05-10 18:50:00,65.2,61.9,29.97,SE,134,0.0,0.0,89,0.00,,,0.01,Wunderground v.1.15,2013-05-10 22:50:00,
2013-05-10 18:55:00,65.1,61.8,29.97,SE,134,0.0,0.0,89,0.00,,,0.01,Wunderground v.1.15,2013-05-10 22:55:00,
2013-05-10 19:00:00,65.0,61.7,29.96,SE,134,0.0,0.0,89,0.00,,,0.01,Wunderground v.1.15,2013-05-10 23:00:00,
2013-05-10 19:10:00,64.7,61.4,29.97,SE,134,0.0,0.0,89,0.00,,,0.01,Wunderground v.1.15,2013-05-10 23:10:00,
2013-05-10 19:15:00,64.6,61.3,29.96,SE,134,0.0,0.0,89,0.00,,,0.01,Wunderground v.1.15,2013-05-10 23:15:00,
2013-05-10 19:25:00,64.3,61.0,29.96,SE,134,0.0,0.0,89,0.00,,,0.01,Wunderground v.1.15,2013-05-10 23:25:00,
2013-05-10 19:30:00,64.1,61.1,29.96,SE,134,0.0,0.0,90,0.00,,,0.01,Wunderground v.1.15,2013-05-10 23:30:00,
2013-05-10 19:40:00,63.9,60.9,29.95,SE,134,0.0,0.0,90,0.00,,,0.01,Wunderground v.1.15,2013-05-10 23:40:00,
2013-05-10 19:45:00,63.7,60.7,29.96,SE,134,0.0,0.0,90,0.00,,,0.01,Wunderground v.1.15,2013-05-10 23:45:00,
2013-05-10 19:50:00,63.6,60.6,29.96,SE,134,0.0,0.0,90,0.00,,,0.01,Wunderground v.1.15,2013-05-10 23:50:00,
2013-05-10 20:00:00,63.4,60.7,29.96,SE,134,0.0,0.0,91,0.00,,,0.01,Wunderground v.1.15,2013-05-11 00:00:00,
2013-05-10 20:10:00,63.2,60.2,29.96,SE,134,0.0,0.0,90,0.00,,,0.01,Wunderground v.1.15,2013-05-11 00:10:00,
2013-05-10 20:15:00,63.2,60.5,29.96,SE,134,0.0,0.0,91,0.00,,,0.01,Wunderground v.1.15,2013-05-11 00:15:00,
2013-05-10 20:25:00,63.0,60.3,29.96,SE,134,0.0,0.0,91,0.00,,,0.01,Wunderground v.1.15,2013-05-11 00:25:00,
2013-05-10 20:30:00,62.9,60.2,29.96,SE,134,0.0,0.0,91,0.00,,,0.01,Wunderground v.1.15,2013-05-11 00:30:00,
2013-05-10 20:35:00,62.8,60.1,29.96,SE,134,0.0,0.0,91,0.00,,,0.01,Wunderground v.1.15,2013-05-11 00:35:00,
2013-05-10 20:40:00,62.7,60.0,29.96,SE,134,0.0,0.0,91,0.00,,,0.01,Wunderground v.1.15,2013-05-11 00:40:00,
2013-05-10 20:50:00,62.6,59.9,29.96,SE,134,0.0,0.0,91,0.00,,,0.01,Wunderground v.1.15,2013-05-11 00:50:00,
2013-05-10 20:55:00,62.5,59.8,29.96,SE,134,0.0,0.0,91,0.00,,,0.01,Wunderground v.1.15,2013-05-11 00:55:00,
2013-05-10 21:00:00,62.4,60.0,29.96,SE,134,0.0,0.0,92,0.00,,,0.01,Wunderground v.1.15,2013-05-11 01:00:00,
2013-05-10 21:10:00,62.3,59.9,29.97,SE,134,0.0,0.0,92,0.00,,,0.01,Wunderground v.1.15,2013-05-11 01:10:00,
2013-05-10 21:15:00,62.2,59.8,29.97,SE,134,0.0,0.0,92,0.00,,,0.01,Wunderground v.1.15,2013-05-11 01:15:00,
2013-05-10 21:25:00,62.0,59.6,29.97,SE,134,0.0,0.0,92,0.00,,,0.01,Wunderground v.1.15,2013-05-11 01:25:00,
2013-05-10 21:30:00,61.9,59.5,29.97,SE,134,0.0,0.0,92,0.00,,,0.01,Wunderground v.1.15,2013-05-11 01:30:00,
2013-05-10 21:35:00,61.8,59.5,29.97,SE,134,0.0,0.0,92,0.00,,,0.01,Wunderground v.1.15,2013-05-11 01:35:00,
2013-05-10 21:40:00,61.7,59.4,29.96,SE,134,0.0,0.0,92,0.00,,,0.01,Wunderground v.1.15,2013-05-11 01:40:00,
2013-05-10 21:50:00,61.5,59.2,29.96,SE,134,0.0,0.0,92,0.00,,,0.01,Wunderground v.1.15,2013-05-11 01:50:00,
2013-05-10 21:55:00,61.4,59.1,29.96,SE,134,0.0,0.0,92,0.00,,,0.01,Wunderground v.1.15,2013-05-11 01:55:00,
2013-05-10 22:00:00,61.4,59.1,29.97,SE,134,0.0,0.0,92,0.00,,,0.01,Wunderground v.1.15,2013-05-11 02:00:00,
2013-05-10 22:10:00,61.1,59.1,29.97,SE,134,0.0,0.0,93,0.00,,,0.01,Wunderground v.1.15,2013-05-11 02:10:00,
2013-05-10 22:15:00,61.0,59.0,29.97,SE,134,0.0,0.0,93,0.00,,,0.01,Wunderground v.1.15,2013-05-11 02:15:00,
2013-05-10 22:25:00,60.8,58.8,29.97,SE,134,0.0,0.0,93,0.00,,,0.01,Wunderground v.1.15,2013-05-11 02:25:00,
2013-05-10 22:30:00,60.7,58.7,29.97,SE,134,0.0,0.0,93,0.00,,,0.01,Wunderground v.1.15,2013-05-11 02:30:00,
2013-05-10 22:40:00,60.6,58.6,29.97,SE,134,0.0,0.0,93,0.00,,,0.01,Wunderground v.1.15,2013-05-11 02:40:00,
2013-05-10 22:45:00,60.5,58.5,29.97,SE,134,0.0,0.0,93,0.00,,,0.01,Wunderground v.1.15,2013-05-11 02:45:00,
2013-05-10 22:50:00,60.4,58.4,29.97,SE,134,0.0,0.0,93,0.00,,,0.01,Wunderground v.1.15,2013-05-11 02:50:00,
2013-05-10 22:55:00,60.3,58.3,29.97,SE,134,0.0,0.0,93,0.00,,,0.01,Wunderground v.1.15,2013-05-11 02:55:00,
2013-05-10 23:00:00,60.3,58.3,29.97,SE,134,0.0,0.0,93,0.00,,,0.01,Wunderground v.1.15,2013-05-11 03:00:00,
2013-05-10 23:10:00,60.1,58.1,29.97,SE,134,0.0,0.0,93,0.00,,,0.01,Wunderground v.1.15,2013-05-11 03:10:00,
2013-05-10 23:15:00,60.0,58.0,29.97,SE,134,0.0,0.0,93,0.00,,,0.01,Wunderground v.1.15,2013-05-11 03:15:00,
2013-05-10 23:25:00,59.9,57.9,29.97,SE,134,0.0,0.0,93,0.00,,,0.01,Wunderground v.1.15,2013-05-11 03:25:00,
2013-05-10 23:30:00,59.8,57.8,29.97,SE,134,0.0,0.0,93,0.00,,,0.01,Wunderground v.1.15,2013-05-11 03:30:00,
2013-05-10 23:40:00,59.7,57.7,29.97,SE,134,0.0,0.0,93,0.00,,,0.01,Wunderground v.1.15,2013-05-11 03:40:00,
2013-05-10 23:45:00,59.7,57.7,29.98,SE,134,0.0,0.0,93,0.00,,,0.01,Wunderground v.1.15,2013-05-11 03:45:00,
2013-05-10 23:50:00,59.6,57.9,29.98,SE,134,0.0,0.0,94,0.00,,,0.01,Wunderground v.1.15,2013-05-11 03:50:00,
2013-05-10 23:55:00,59.6,57.9,29.98,SE,134,0.0,0.0,94,0.00,,,0.01,Wunderground v.1.15,2013-05-11 03:55:00,